sensor_id;sensor_type;location;lat;lon;timestamp;P1;durP1;ratioP1;P2;durP2;ratioP2
22525;SDS011;11429;50.842;4.386;2023-04-01T00:00:19;7.68;;;2.38;;
22525;SDS011;11429;50.842;4.386;2023-04-01T00:02:45;10.00;;;2.35;;
22525;SDS011;11429;50.842;4.386;2023-04-01T00:05:12;13.57;;;3.25;;
22525;SDS011;11429;50.842;4.386;2023-04-01T00:07:39;11.88;;;2.83;;
22525;SDS011;11429;50.842;4.386;2023-04-01T00:10:09;11.85;;;3.08;;
22525;SDS011;11429;50.842;4.386;2023-04-01T00:12:36;9.93;;;2.42;;
22525;SDS011;11429;50.842;4.386;2023-04-01T00:15:03;12.32;;;2.80;;
22525;SDS011;11429;50.842;4.386;2023-04-01T00:17:30;8.60;;;2.58;;
22525;SDS011;11429;50.842;4.386;2023-04-01T00:19:56;10.00;;;2.80;;
22525;SDS011;11429;50.842;4.386;2023-04-01T00:22:23;7.07;;;2.70;;
22525;SDS011;11429;50.842;4.386;2023-04-01T00:24:49;7.85;;;2.40;;
22525;SDS011;11429;50.842;4.386;2023-04-01T00:27:15;13.18;;;3.13;;
22525;SDS011;11429;50.842;4.386;2023-04-01T00:29:41;9.07;;;2.15;;
22525;SDS011;11429;50.842;4.386;2023-04-01T00:32:08;8.77;;;2.08;;
22525;SDS011;11429;50.842;4.386;2023-04-01T00:34:34;9.75;;;2.35;;
22525;SDS011;11429;50.842;4.386;2023-04-01T00:37:00;7.43;;;2.05;;
22525;SDS011;11429;50.842;4.386;2023-04-01T00:39:28;7.15;;;2.10;;
22525;SDS011;11429;50.842;4.386;2023-04-01T00:41:54;7.60;;;2.40;;
22525;SDS011;11429;50.842;4.386;2023-04-01T00:44:26;10.63;;;2.85;;
22525;SDS011;11429;50.842;4.386;2023-04-01T00:46:54;6.15;;;2.00;;
22525;SDS011;11429;50.842;4.386;2023-04-01T00:49:22;6.88;;;2.50;;
22525;SDS011;11429;50.842;4.386;2023-04-01T00:51:51;5.68;;;1.85;;
22525;SDS011;11429;50.842;4.386;2023-04-01T00:54:20;7.28;;;2.00;;
22525;SDS011;11429;50.842;4.386;2023-04-01T00:56:48;8.05;;;2.55;;
22525;SDS011;11429;50.842;4.386;2023-04-01T00:59:21;6.85;;;2.13;;
22525;SDS011;11429;50.842;4.386;2023-04-01T01:01:52;5.18;;;1.48;;
22525;SDS011;11429;50.842;4.386;2023-04-01T01:04:21;6.00;;;1.90;;
22525;SDS011;11429;50.842;4.386;2023-04-01T01:06:54;4.47;;;1.63;;
22525;SDS011;11429;50.842;4.386;2023-04-01T01:29:29;2.80;;;1.25;;
22525;SDS011;11429;50.842;4.386;2023-04-01T01:37:12;1.80;;;1.10;;
22525;SDS011;11429;50.842;4.386;2023-04-01T01:39:41;4.93;;;1.60;;
22525;SDS011;11429;50.842;4.386;2023-04-01T01:42:11;6.40;;;1.48;;
22525;SDS011;11429;50.842;4.386;2023-04-01T01:44:39;3.70;;;1.73;;
22525;SDS011;11429;50.842;4.386;2023-04-01T01:47:07;5.18;;;1.85;;
22525;SDS011;11429;50.842;4.386;2023-04-01T01:49:34;5.65;;;2.20;;
22525;SDS011;11429;50.842;4.386;2023-04-01T01:52:02;3.03;;;1.85;;
22525;SDS011;11429;50.842;4.386;2023-04-01T01:54:28;5.63;;;2.58;;
22525;SDS011;11429;50.842;4.386;2023-04-01T01:57:04;4.68;;;2.80;;
22525;SDS011;11429;50.842;4.386;2023-04-01T01:59:33;9.45;;;3.00;;
22525;SDS011;11429;50.842;4.386;2023-04-01T02:02:02;6.78;;;2.90;;
22525;SDS011;11429;50.842;4.386;2023-04-01T02:04:33;5.88;;;3.05;;
22525;SDS011;11429;50.842;4.386;2023-04-01T02:07:02;6.90;;;3.30;;
22525;SDS011;11429;50.842;4.386;2023-04-01T02:09:30;6.75;;;3.38;;
22525;SDS011;11429;50.842;4.386;2023-04-01T02:11:59;8.75;;;3.95;;
22525;SDS011;11429;50.842;4.386;2023-04-01T02:14:38;8.18;;;3.70;;
22525;SDS011;11429;50.842;4.386;2023-04-01T02:17:18;7.40;;;3.58;;
22525;SDS011;11429;50.842;4.386;2023-04-01T02:22:29;8.00;;;3.47;;
22525;SDS011;11429;50.842;4.386;2023-04-01T02:25:00;7.88;;;4.18;;
22525;SDS011;11429;50.842;4.386;2023-04-01T02:27:31;7.35;;;3.50;;
22525;SDS011;11429;50.842;4.386;2023-04-01T02:29:57;9.38;;;3.58;;
22525;SDS011;11429;50.842;4.386;2023-04-01T02:32:24;13.05;;;3.92;;
22525;SDS011;11429;50.842;4.386;2023-04-01T02:34:51;6.63;;;2.97;;
22525;SDS011;11429;50.842;4.386;2023-04-01T02:37:17;9.10;;;3.83;;
22525;SDS011;11429;50.842;4.386;2023-04-01T02:39:43;7.80;;;4.20;;
22525;SDS011;11429;50.842;4.386;2023-04-01T02:42:09;9.52;;;3.90;;
22525;SDS011;11429;50.842;4.386;2023-04-01T02:44:35;12.52;;;3.42;;
22525;SDS011;11429;50.842;4.386;2023-04-01T02:47:01;9.43;;;3.70;;
22525;SDS011;11429;50.842;4.386;2023-04-01T02:49:27;9.15;;;3.53;;
22525;SDS011;11429;50.842;4.386;2023-04-01T02:51:52;8.57;;;3.20;;
22525;SDS011;11429;50.842;4.386;2023-04-01T02:54:18;7.95;;;3.38;;
22525;SDS011;11429;50.842;4.386;2023-04-01T02:56:44;10.32;;;3.28;;
22525;SDS011;11429;50.842;4.386;2023-04-01T02:59:10;8.00;;;3.35;;
22525;SDS011;11429;50.842;4.386;2023-04-01T03:01:36;6.30;;;2.88;;
22525;SDS011;11429;50.842;4.386;2023-04-01T03:04:02;10.95;;;3.75;;
22525;SDS011;11429;50.842;4.386;2023-04-01T03:06:28;8.45;;;3.85;;
22525;SDS011;11429;50.842;4.386;2023-04-01T03:08:54;12.23;;;3.90;;
22525;SDS011;11429;50.842;4.386;2023-04-01T03:11:20;8.77;;;4.00;;
22525;SDS011;11429;50.842;4.386;2023-04-01T03:13:46;9.38;;;3.72;;
22525;SDS011;11429;50.842;4.386;2023-04-01T03:16:12;9.88;;;4.57;;
22525;SDS011;11429;50.842;4.386;2023-04-01T03:18:37;10.63;;;4.55;;
22525;SDS011;11429;50.842;4.386;2023-04-01T03:21:16;13.00;;;4.22;;
22525;SDS011;11429;50.842;4.386;2023-04-01T03:23:44;8.85;;;4.13;;
22525;SDS011;11429;50.842;4.386;2023-04-01T03:26:10;12.07;;;4.75;;
22525;SDS011;11429;50.842;4.386;2023-04-01T03:28:35;11.30;;;4.88;;
22525;SDS011;11429;50.842;4.386;2023-04-01T03:31:01;8.88;;;4.93;;
22525;SDS011;11429;50.842;4.386;2023-04-01T03:33:27;10.20;;;5.43;;
22525;SDS011;11429;50.842;4.386;2023-04-01T03:35:53;8.27;;;5.20;;
22525;SDS011;11429;50.842;4.386;2023-04-01T03:38:19;12.50;;;5.95;;
22525;SDS011;11429;50.842;4.386;2023-04-01T03:40:45;11.00;;;5.75;;
22525;SDS011;11429;50.842;4.386;2023-04-01T03:43:10;11.10;;;5.93;;
22525;SDS011;11429;50.842;4.386;2023-04-01T03:45:50;12.25;;;6.72;;
22525;SDS011;11429;50.842;4.386;2023-04-01T03:48:16;13.32;;;6.13;;
22525;SDS011;11429;50.842;4.386;2023-04-01T03:50:42;10.20;;;6.18;;
22525;SDS011;11429;50.842;4.386;2023-04-01T03:53:10;16.95;;;7.57;;
22525;SDS011;11429;50.842;4.386;2023-04-01T03:55:36;13.43;;;7.03;;
22525;SDS011;11429;50.842;4.386;2023-04-01T03:58:02;13.98;;;6.50;;
22525;SDS011;11429;50.842;4.386;2023-04-01T04:00:29;14.80;;;6.25;;
22525;SDS011;11429;50.842;4.386;2023-04-01T04:02:55;14.32;;;6.57;;
22525;SDS011;11429;50.842;4.386;2023-04-01T04:05:22;9.98;;;6.30;;
22525;SDS011;11429;50.842;4.386;2023-04-01T04:07:49;18.73;;;6.70;;
22525;SDS011;11429;50.842;4.386;2023-04-01T04:10:15;18.02;;;6.93;;
22525;SDS011;11429;50.842;4.386;2023-04-01T04:12:41;15.40;;;6.68;;
22525;SDS011;11429;50.842;4.386;2023-04-01T04:15:07;13.43;;;6.60;;
22525;SDS011;11429;50.842;4.386;2023-04-01T04:17:33;13.30;;;6.60;;
22525;SDS011;11429;50.842;4.386;2023-04-01T04:19:59;15.23;;;6.22;;
22525;SDS011;11429;50.842;4.386;2023-04-01T04:22:25;13.93;;;5.78;;
22525;SDS011;11429;50.842;4.386;2023-04-01T04:24:50;12.73;;;5.63;;
22525;SDS011;11429;50.842;4.386;2023-04-01T04:27:16;10.25;;;5.13;;
22525;SDS011;11429;50.842;4.386;2023-04-01T04:29:42;12.35;;;5.35;;
22525;SDS011;11429;50.842;4.386;2023-04-01T04:32:08;9.82;;;4.38;;
22525;SDS011;11429;50.842;4.386;2023-04-01T04:34:34;10.18;;;5.22;;
22525;SDS011;11429;50.842;4.386;2023-04-01T04:37:00;11.05;;;5.28;;
22525;SDS011;11429;50.842;4.386;2023-04-01T04:39:25;10.05;;;5.00;;
22525;SDS011;11429;50.842;4.386;2023-04-01T04:41:51;8.23;;;4.35;;
22525;SDS011;11429;50.842;4.386;2023-04-01T04:44:17;7.03;;;4.25;;
22525;SDS011;11429;50.842;4.386;2023-04-01T04:46:42;9.18;;;4.32;;
22525;SDS011;11429;50.842;4.386;2023-04-01T04:49:09;6.38;;;3.90;;
22525;SDS011;11429;50.842;4.386;2023-04-01T04:51:35;8.55;;;4.50;;
22525;SDS011;11429;50.842;4.386;2023-04-01T04:54:01;6.40;;;4.07;;
22525;SDS011;11429;50.842;4.386;2023-04-01T04:56:27;7.97;;;3.67;;
22525;SDS011;11429;50.842;4.386;2023-04-01T04:58:53;6.25;;;3.65;;
22525;SDS011;11429;50.842;4.386;2023-04-01T05:01:20;5.57;;;3.42;;
22525;SDS011;11429;50.842;4.386;2023-04-01T05:03:47;7.63;;;4.03;;
22525;SDS011;11429;50.842;4.386;2023-04-01T05:06:13;5.60;;;3.80;;
22525;SDS011;11429;50.842;4.386;2023-04-01T05:08:40;5.88;;;3.70;;
22525;SDS011;11429;50.842;4.386;2023-04-01T05:11:09;5.57;;;3.92;;
22525;SDS011;11429;50.842;4.386;2023-04-01T05:13:38;5.50;;;3.60;;
22525;SDS011;11429;50.842;4.386;2023-04-01T05:16:07;6.82;;;4.15;;
22525;SDS011;11429;50.842;4.386;2023-04-01T05:18:36;8.98;;;4.10;;
22525;SDS011;11429;50.842;4.386;2023-04-01T05:21:02;5.57;;;4.15;;
22525;SDS011;11429;50.842;4.386;2023-04-01T05:23:30;7.05;;;4.22;;
22525;SDS011;11429;50.842;4.386;2023-04-01T05:25:56;7.63;;;4.22;;
22525;SDS011;11429;50.842;4.386;2023-04-01T05:28:22;7.88;;;3.92;;
22525;SDS011;11429;50.842;4.386;2023-04-01T05:30:48;7.85;;;4.65;;
22525;SDS011;11429;50.842;4.386;2023-04-01T05:33:14;8.63;;;4.50;;
22525;SDS011;11429;50.842;4.386;2023-04-01T05:35:40;7.93;;;4.82;;
22525;SDS011;11429;50.842;4.386;2023-04-01T05:38:06;10.55;;;4.97;;
22525;SDS011;11429;50.842;4.386;2023-04-01T05:40:32;8.55;;;4.90;;
22525;SDS011;11429;50.842;4.386;2023-04-01T05:42:58;12.20;;;5.88;;
22525;SDS011;11429;50.842;4.386;2023-04-01T05:45:25;10.63;;;5.70;;
22525;SDS011;11429;50.842;4.386;2023-04-01T05:47:51;9.00;;;5.78;;
22525;SDS011;11429;50.842;4.386;2023-04-01T05:50:17;10.68;;;5.78;;
22525;SDS011;11429;50.842;4.386;2023-04-01T05:52:42;9.55;;;5.38;;
22525;SDS011;11429;50.842;4.386;2023-04-01T05:55:09;9.13;;;5.75;;
22525;SDS011;11429;50.842;4.386;2023-04-01T05:57:35;12.70;;;6.25;;
22525;SDS011;11429;50.842;4.386;2023-04-01T06:00:01;11.50;;;6.88;;
22525;SDS011;11429;50.842;4.386;2023-04-01T06:02:27;10.30;;;6.22;;
22525;SDS011;11429;50.842;4.386;2023-04-01T06:04:54;14.48;;;6.93;;
22525;SDS011;11429;50.842;4.386;2023-04-01T06:07:43;9.43;;;6.38;;
22525;SDS011;11429;50.842;4.386;2023-04-01T06:10:13;14.38;;;7.85;;
22525;SDS011;11429;50.842;4.386;2023-04-01T06:23:50;11.48;;;8.00;;
22525;SDS011;11429;50.842;4.386;2023-04-01T06:32:32;12.50;;;7.88;;
22525;SDS011;11429;50.842;4.386;2023-04-01T06:56:17;14.35;;;8.07;;
22525;SDS011;11429;50.842;4.386;2023-04-01T06:58:46;14.43;;;7.05;;
22525;SDS011;11429;50.842;4.386;2023-04-01T07:01:32;10.35;;;6.82;;
22525;SDS011;11429;50.842;4.386;2023-04-01T07:09:24;10.18;;;5.72;;
22525;SDS011;11429;50.842;4.386;2023-04-01T07:11:56;10.30;;;7.20;;
22525;SDS011;11429;50.842;4.386;2023-04-01T07:14:37;11.85;;;6.53;;
22525;SDS011;11429;50.842;4.386;2023-04-01T07:17:07;7.72;;;5.82;;
22525;SDS011;11429;50.842;4.386;2023-04-01T07:19:44;9.13;;;6.03;;
22525;SDS011;11429;50.842;4.386;2023-04-01T07:22:34;9.05;;;5.60;;
22525;SDS011;11429;50.842;4.386;2023-04-01T07:25:17;10.68;;;5.57;;
22525;SDS011;11429;50.842;4.386;2023-04-01T07:27:53;8.00;;;5.00;;
22525;SDS011;11429;50.842;4.386;2023-04-01T07:30:25;8.30;;;5.00;;
22525;SDS011;11429;50.842;4.386;2023-04-01T07:35:48;8.32;;;5.18;;
22525;SDS011;11429;50.842;4.386;2023-04-01T07:38:37;8.07;;;4.20;;
22525;SDS011;11429;50.842;4.386;2023-04-01T07:44:23;6.90;;;3.50;;
22525;SDS011;11429;50.842;4.386;2023-04-01T07:49:48;6.07;;;3.30;;
22525;SDS011;11429;50.842;4.386;2023-04-01T08:06:36;2.35;;;1.60;;
22525;SDS011;11429;50.842;4.386;2023-04-01T08:17:38;1.63;;;1.30;;
22525;SDS011;11429;50.842;4.386;2023-04-01T08:20:17;2.30;;;1.60;;
22525;SDS011;11429;50.842;4.386;2023-04-01T08:22:57;2.20;;;1.33;;
22525;SDS011;11429;50.842;4.386;2023-04-01T08:25:33;3.55;;;1.52;;
22525;SDS011;11429;50.842;4.386;2023-04-01T08:33:31;2.47;;;1.23;;
22525;SDS011;11429;50.842;4.386;2023-04-01T08:41:08;3.00;;;1.73;;
22525;SDS011;11429;50.842;4.386;2023-04-01T08:51:58;4.82;;;2.00;;
22525;SDS011;11429;50.842;4.386;2023-04-01T09:00:31;2.35;;;1.30;;
22525;SDS011;11429;50.842;4.386;2023-04-01T09:14:12;3.13;;;1.77;;
22525;SDS011;11429;50.842;4.386;2023-04-01T09:28:05;5.28;;;1.90;;
22525;SDS011;11429;50.842;4.386;2023-04-01T09:30:58;2.45;;;1.98;;
22525;SDS011;11429;50.842;4.386;2023-04-01T09:50:20;3.60;;;1.95;;
22525;SDS011;11429;50.842;4.386;2023-04-01T10:17:17;2.45;;;1.48;;
22525;SDS011;11429;50.842;4.386;2023-04-01T10:48:15;3.58;;;1.33;;
22525;SDS011;11429;50.842;4.386;2023-04-01T10:56:55;1.63;;;1.00;;
22525;SDS011;11429;50.842;4.386;2023-04-01T11:32:38;4.20;;;2.33;;
22525;SDS011;11429;50.842;4.386;2023-04-01T11:54:24;5.18;;;1.83;;
22525;SDS011;11429;50.842;4.386;2023-04-01T12:05:21;2.58;;;1.30;;
22525;SDS011;11429;50.842;4.386;2023-04-01T12:10:35;2.13;;;1.67;;
22525;SDS011;11429;50.842;4.386;2023-04-01T12:13:20;2.88;;;1.75;;
22525;SDS011;11429;50.842;4.386;2023-04-01T12:21:48;2.55;;;1.35;;
22525;SDS011;11429;50.842;4.386;2023-04-01T12:30:13;4.22;;;1.73;;
22525;SDS011;11429;50.842;4.386;2023-04-01T12:35:55;3.42;;;2.05;;
22525;SDS011;11429;50.842;4.386;2023-04-01T12:46:33;3.35;;;2.10;;
22525;SDS011;11429;50.842;4.386;2023-04-01T12:52:03;4.07;;;2.03;;
22525;SDS011;11429;50.842;4.386;2023-04-01T13:11:30;4.25;;;2.28;;
22525;SDS011;11429;50.842;4.386;2023-04-01T13:14:47;3.58;;;2.08;;
22525;SDS011;11429;50.842;4.386;2023-04-01T13:16:58;5.03;;;2.45;;
22525;SDS011;11429;50.842;4.386;2023-04-01T13:19:50;9.07;;;7.15;;
22525;SDS011;11429;50.842;4.386;2023-04-01T13:25:01;2.75;;;1.73;;
22525;SDS011;11429;50.842;4.386;2023-04-01T13:27:43;4.03;;;2.25;;
22525;SDS011;11429;50.842;4.386;2023-04-01T13:44:32;3.10;;;1.73;;
22525;SDS011;11429;50.842;4.386;2023-04-01T13:47:07;1.77;;;1.27;;
22525;SDS011;11429;50.842;4.386;2023-04-01T13:55:28;3.00;;;1.45;;
22525;SDS011;11429;50.842;4.386;2023-04-01T14:06:23;3.25;;;1.30;;
22525;SDS011;11429;50.842;4.386;2023-04-01T14:09:16;2.13;;;1.23;;
22525;SDS011;11429;50.842;4.386;2023-04-01T14:12:02;2.50;;;1.00;;
22525;SDS011;11429;50.842;4.386;2023-04-01T14:26:54;1.60;;;1.08;;
22525;SDS011;11429;50.842;4.386;2023-04-01T14:29:08;1.98;;;1.00;;
22525;SDS011;11429;50.842;4.386;2023-04-01T14:34:53;2.50;;;1.20;;
22525;SDS011;11429;50.842;4.386;2023-04-01T14:37:40;1.48;;;0.90;;
22525;SDS011;11429;50.842;4.386;2023-04-01T14:43:33;1.30;;;1.00;;
22525;SDS011;11429;50.842;4.386;2023-04-01T14:48:58;1.75;;;0.98;;
22525;SDS011;11429;50.842;4.386;2023-04-01T14:51:38;2.28;;;1.17;;
22525;SDS011;11429;50.842;4.386;2023-04-01T14:56:44;2.58;;;1.50;;
22525;SDS011;11429;50.842;4.386;2023-04-01T14:59:25;1.38;;;0.95;;
22525;SDS011;11429;50.842;4.386;2023-04-01T15:02:31;2.78;;;1.20;;
22525;SDS011;11429;50.842;4.386;2023-04-01T15:07:45;0.88;;;0.80;;
22525;SDS011;11429;50.842;4.386;2023-04-01T15:11:07;2.75;;;1.55;;
22525;SDS011;11429;50.842;4.386;2023-04-01T15:19:05;2.63;;;1.00;;
22525;SDS011;11429;50.842;4.386;2023-04-01T15:32:55;2.95;;;1.20;;
22525;SDS011;11429;50.842;4.386;2023-04-01T15:41:13;2.20;;;1.02;;
22525;SDS011;11429;50.842;4.386;2023-04-01T15:43:58;1.92;;;0.77;;
22525;SDS011;11429;50.842;4.386;2023-04-01T15:46:26;2.15;;;1.10;;
22525;SDS011;11429;50.842;4.386;2023-04-01T15:48:57;2.17;;;0.90;;
22525;SDS011;11429;50.842;4.386;2023-04-01T16:04:56;1.88;;;1.08;;
22525;SDS011;11429;50.842;4.386;2023-04-01T16:10:38;2.35;;;1.10;;
22525;SDS011;11429;50.842;4.386;2023-04-01T16:16:41;1.92;;;0.90;;
22525;SDS011;11429;50.842;4.386;2023-04-01T16:24:32;2.35;;;1.30;;
22525;SDS011;11429;50.842;4.386;2023-04-01T16:27:13;3.33;;;1.52;;
22525;SDS011;11429;50.842;4.386;2023-04-01T16:29:55;2.10;;;1.00;;
22525;SDS011;11429;50.842;4.386;2023-04-01T16:34:58;1.75;;;1.08;;
22525;SDS011;11429;50.842;4.386;2023-04-01T16:42:51;3.10;;;1.63;;
22525;SDS011;11429;50.842;4.386;2023-04-01T16:47:50;3.03;;;1.20;;
22525;SDS011;11429;50.842;4.386;2023-04-01T16:50:25;2.55;;;1.45;;
22525;SDS011;11429;50.842;4.386;2023-04-01T16:58:09;2.78;;;1.35;;
22525;SDS011;11429;50.842;4.386;2023-04-01T17:00:50;2.17;;;1.63;;
22525;SDS011;11429;50.842;4.386;2023-04-01T17:03:22;3.45;;;1.67;;
22525;SDS011;11429;50.842;4.386;2023-04-01T17:06:03;2.38;;;1.42;;
22525;SDS011;11429;50.842;4.386;2023-04-01T17:08:54;3.15;;;1.95;;
22525;SDS011;11429;50.842;4.386;2023-04-01T17:11:29;2.63;;;1.50;;
22525;SDS011;11429;50.842;4.386;2023-04-01T17:17:00;2.67;;;1.85;;
22525;SDS011;11429;50.842;4.386;2023-04-01T17:22:13;3.92;;;1.80;;
22525;SDS011;11429;50.842;4.386;2023-04-01T17:30:30;2.97;;;1.52;;
22525;SDS011;11429;50.842;4.386;2023-04-01T17:42:14;4.88;;;2.42;;
22525;SDS011;11429;50.842;4.386;2023-04-01T17:44:31;3.83;;;1.90;;
22525;SDS011;11429;50.842;4.386;2023-04-01T17:47:11;3.45;;;2.25;;
22525;SDS011;11429;50.842;4.386;2023-04-01T17:52:39;4.95;;;2.10;;
22525;SDS011;11429;50.842;4.386;2023-04-01T18:00:58;3.70;;;2.63;;
22525;SDS011;11429;50.842;4.386;2023-04-01T18:11:49;5.85;;;3.05;;
22525;SDS011;11429;50.842;4.386;2023-04-01T18:17:03;4.50;;;2.65;;
22525;SDS011;11429;50.842;4.386;2023-04-01T18:19:52;6.40;;;3.03;;
22525;SDS011;11429;50.842;4.386;2023-04-01T18:22:27;5.03;;;2.97;;
22525;SDS011;11429;50.842;4.386;2023-04-01T18:27:50;4.40;;;3.63;;
22525;SDS011;11429;50.842;4.386;2023-04-01T18:30:35;7.55;;;4.30;;
22525;SDS011;11429;50.842;4.386;2023-04-01T18:33:49;6.40;;;4.80;;
22525;SDS011;11429;50.842;4.386;2023-04-01T18:38:36;5.45;;;4.88;;
22525;SDS011;11429;50.842;4.386;2023-04-01T18:41:25;6.18;;;5.03;;
22525;SDS011;11429;50.842;4.386;2023-04-01T18:47:07;7.82;;;5.13;;
22525;SDS011;11429;50.842;4.386;2023-04-01T18:49:48;7.50;;;4.88;;
22525;SDS011;11429;50.842;4.386;2023-04-01T18:52:36;5.10;;;4.60;;
22525;SDS011;11429;50.842;4.386;2023-04-01T19:06:43;8.00;;;6.13;;
22525;SDS011;11429;50.842;4.386;2023-04-01T19:14:51;10.57;;;7.80;;
22525;SDS011;11429;50.842;4.386;2023-04-01T19:35:04;15.95;;;12.45;;
22525;SDS011;11429;50.842;4.386;2023-04-01T19:51:42;20.85;;;15.35;;
22525;SDS011;11429;50.842;4.386;2023-04-01T19:54:35;19.50;;;14.00;;
22525;SDS011;11429;50.842;4.386;2023-04-01T19:57:44;22.23;;;14.23;;
22525;SDS011;11429;50.842;4.386;2023-04-01T20:08:45;18.35;;;13.98;;
22525;SDS011;11429;50.842;4.386;2023-04-01T20:19:58;20.35;;;13.32;;
22525;SDS011;11429;50.842;4.386;2023-04-01T20:27:39;19.65;;;13.70;;
22525;SDS011;11429;50.842;4.386;2023-04-01T20:41:28;24.25;;;14.48;;
22525;SDS011;11429;50.842;4.386;2023-04-01T20:44:08;26.35;;;14.57;;
22525;SDS011;11429;50.842;4.386;2023-04-01T20:46:56;18.90;;;13.07;;
22525;SDS011;11429;50.842;4.386;2023-04-01T20:49:43;20.50;;;13.75;;
22525;SDS011;11429;50.842;4.386;2023-04-01T21:03:47;17.77;;;11.68;;
22525;SDS011;11429;50.842;4.386;2023-04-01T21:43:28;25.48;;;17.15;;
22525;SDS011;11429;50.842;4.386;2023-04-01T21:51:57;20.05;;;14.05;;
22525;SDS011;11429;50.842;4.386;2023-04-01T22:00:33;21.15;;;13.80;;
22525;SDS011;11429;50.842;4.386;2023-04-01T22:03:23;22.95;;;14.35;;
22525;SDS011;11429;50.842;4.386;2023-04-01T22:06:11;19.40;;;14.40;;
22525;SDS011;11429;50.842;4.386;2023-04-01T22:08:56;21.10;;;14.82;;
22525;SDS011;11429;50.842;4.386;2023-04-01T22:14:19;18.73;;;15.07;;
22525;SDS011;11429;50.842;4.386;2023-04-01T22:22:01;18.55;;;14.43;;
22525;SDS011;11429;50.842;4.386;2023-04-01T22:30:17;23.95;;;18.48;;
22525;SDS011;11429;50.842;4.386;2023-04-01T22:33:14;19.63;;;15.55;;
22525;SDS011;11429;50.842;4.386;2023-04-01T22:35:56;18.50;;;16.20;;
22525;SDS011;11429;50.842;4.386;2023-04-01T22:38:48;20.42;;;17.45;;
22525;SDS011;11429;50.842;4.386;2023-04-01T22:41:41;19.33;;;16.30;;
22525;SDS011;11429;50.842;4.386;2023-04-01T22:50:15;20.77;;;16.40;;
22525;SDS011;11429;50.842;4.386;2023-04-01T22:52:39;22.42;;;18.00;;
22525;SDS011;11429;50.842;4.386;2023-04-01T22:55:24;24.67;;;18.45;;
22525;SDS011;11429;50.842;4.386;2023-04-01T22:57:58;23.05;;;18.15;;
22525;SDS011;11429;50.842;4.386;2023-04-01T23:00:31;24.67;;;18.50;;
22525;SDS011;11429;50.842;4.386;2023-04-01T23:05:46;25.38;;;20.20;;
22525;SDS011;11429;50.842;4.386;2023-04-01T23:10:49;24.67;;;19.15;;
22525;SDS011;11429;50.842;4.386;2023-04-01T23:16:34;23.95;;;18.30;;
22525;SDS011;11429;50.842;4.386;2023-04-01T23:19:20;19.65;;;16.02;;
22525;SDS011;11429;50.842;4.386;2023-04-01T23:22:14;23.25;;;15.90;;
22525;SDS011;11429;50.842;4.386;2023-04-01T23:27:45;21.75;;;16.88;;
22525;SDS011;11429;50.842;4.386;2023-04-01T23:38:18;26.80;;;19.08;;
22525;SDS011;11429;50.842;4.386;2023-04-01T23:40:49;21.88;;;18.08;;
22525;SDS011;11429;50.842;4.386;2023-04-01T23:43:25;22.70;;;17.73;;
22525;SDS011;11429;50.842;4.386;2023-04-01T23:46:06;21.73;;;16.80;;
22525;SDS011;11429;50.842;4.386;2023-04-01T23:48:35;23.33;;;16.90;;
22525;SDS011;11429;50.842;4.386;2023-04-01T23:51:04;24.10;;;17.77;;
22525;SDS011;11429;50.842;4.386;2023-04-01T23:56:43;23.67;;;18.23;;
22525;SDS011;11429;50.842;4.386;2023-04-01T23:59:16;27.40;;;20.92;;
